Time;durP1;ratioP1;P1;durP2;ratioP2;P2;SDS_P1;SDS_P2;PMS_P1;PMS_P2;Temp;Humidity;BMP_temperature;BMP_pressure;BME280_temperature;BME280_humidity;BME280_pressure;Samples;Min_cycle;Max_cycle;Signal;HPM_P1;HPM_P2
2022/06/25 00:02:24;;;;;;;12.20;4.78;;;17.40;99.90;;;;;;5050968;28;20107;-48
2022/06/25 00:07:34;;;;;;;7.70;5.10;;;17.30;99.90;;;;;;5054632;28;20048;-50
2022/06/25 00:09:59;;;;;;;8.48;4.53;;;17.30;99.90;;;;;;5054645;28;20018;-55
2022/06/25 00:12:34;;;;;;;11.88;4.47;;;17.30;99.90;;;;;;5054343;28;20037;-54
2022/06/25 00:15:03;;;;;;;14.98;5.00;;;17.20;99.90;;;;;;5054202;28;20029;-52
2022/06/25 00:17:29;;;;;;;8.00;4.63;;;17.20;99.90;;;;;;5053530;28;20029;-52
2022/06/25 00:19:54;;;;;;;8.40;4.57;;;17.20;99.90;;;;;;5054280;28;20392;-53
2022/06/25 00:22:20;;;;;;;7.50;4.53;;;17.30;99.90;;;;;;5054059;28;20025;-49
2022/06/25 00:24:45;;;;;;;8.13;3.80;;;17.20;99.90;;;;;;5053975;28;20060;-50
2022/06/25 00:27:11;;;;;;;12.18;4.53;;;17.20;99.90;;;;;;5053794;28;20025;-53
2022/06/25 00:29:36;;;;;;;10.38;4.03;;;17.20;99.90;;;;;;5054367;28;20082;-54
2022/06/25 00:32:02;;;;;;;6.10;4.07;;;17.10;99.90;;;;;;5053866;28;20064;-50
2022/06/25 00:34:28;;;;;;;13.45;4.50;;;17.10;99.90;;;;;;5054178;28;20024;-50
2022/06/25 00:36:53;;;;;;;6.97;4.57;;;17.10;99.90;;;;;;5053534;28;20071;-50
2022/06/25 00:39:18;;;;;;;15.07;4.90;;;17.10;99.90;;;;;;5053821;28;20037;-50
2022/06/25 00:41:44;;;;;;;11.45;4.20;;;17.10;99.90;;;;;;5054064;28;20481;-49
2022/06/25 00:44:11;;;;;;;12.73;4.32;;;17.10;99.90;;;;;;5076136;22;20053;-46
2022/06/25 00:46:36;;;;;;;13.38;4.32;;;17.00;99.90;;;;;;5029665;28;20040;-49
2022/06/25 00:49:03;;;;;;;7.35;4.03;;;17.00;99.90;;;;;;5032954;28;20040;-48
2022/06/25 00:51:32;;;;;;;10.00;3.90;;;17.00;99.90;;;;;;5033579;28;20017;-49
2022/06/25 00:54:03;;;;;;;10.55;5.47;;;17.00;99.90;;;;;;5033874;28;20405;-49
2022/06/25 00:56:33;;;;;;;11.05;5.10;;;17.00;99.90;;;;;;5012244;28;20030;-46
2022/06/25 00:59:02;;;;;;;12.45;5.10;;;17.00;99.90;;;;;;5013301;28;20400;-45
2022/06/25 01:01:29;;;;;;;10.48;5.88;;;17.00;99.90;;;;;;5013591;28;20149;-48
2022/06/25 01:03:54;;;;;;;6.53;5.00;;;17.00;99.90;;;;;;5013884;28;20037;-48
2022/06/25 01:06:20;;;;;;;8.10;5.00;;;17.00;99.90;;;;;;5013266;28;20037;-46
2022/06/25 01:08:45;;;;;;;5.95;4.72;;;16.90;99.90;;;;;;5013412;28;20243;-47
2022/06/25 01:11:11;;;;;;;7.63;5.13;;;16.90;99.90;;;;;;5013406;28;20523;-47
2022/06/25 01:13:36;;;;;;;6.00;4.72;;;16.90;99.90;;;;;;5012105;28;20504;-46
2022/06/25 01:16:03;;;;;;;8.43;5.72;;;16.90;99.90;;;;;;5013030;28;20516;-47
2022/06/25 01:18:29;;;;;;;6.97;5.38;;;16.90;99.90;;;;;;5012800;28;20029;-47
2022/06/25 01:20:54;;;;;;;10.02;5.90;;;16.80;99.90;;;;;;5013272;28;20401;-48
2022/06/25 01:23:20;;;;;;;18.65;6.82;;;16.80;99.90;;;;;;5011820;28;20034;-47
2022/06/25 01:25:45;;;;;;;7.50;5.88;;;16.80;99.90;;;;;;5012892;28;20112;-48
2022/06/25 01:28:11;;;;;;;13.57;6.40;;;16.80;99.90;;;;;;4995226;28;20181;-48
2022/06/25 01:30:37;;;;;;;17.13;6.00;;;16.80;99.90;;;;;;5013011;28;20490;-46
2022/06/25 01:33:06;;;;;;;15.85;6.00;;;16.80;99.90;;;;;;5013000;28;20092;-46
2022/06/25 01:35:32;;;;;;;7.32;5.68;;;16.80;99.90;;;;;;5012753;28;20030;-46
2022/06/25 01:37:57;;;;;;;14.85;5.32;;;16.70;99.90;;;;;;5012609;28;20065;-46
2022/06/25 01:40:23;;;;;;;10.00;6.63;;;16.80;99.90;;;;;;5012775;28;20482;-46
2022/06/25 01:43:00;;;;;;;11.35;5.78;;;16.80;99.90;;;;;;5012829;28;20034;-48
2022/06/25 01:45:29;;;;;;;16.17;7.72;;;16.80;99.90;;;;;;5012396;28;20402;-46
2022/06/25 01:47:54;;;;;;;12.63;7.47;;;16.70;99.90;;;;;;5012480;28;20026;-47
2022/06/25 01:50:20;;;;;;;15.88;7.57;;;16.80;99.90;;;;;;5012565;28;20084;-46
2022/06/25 01:52:46;;;;;;;19.63;7.85;;;16.80;99.90;;;;;;5012694;28;20036;-48
2022/06/25 01:55:12;;;;;;;16.10;8.18;;;16.80;99.90;;;;;;5012323;28;20539;-46
2022/06/25 01:57:38;;;;;;;8.98;7.60;;;16.70;99.90;;;;;;5012457;28;20397;-48
2022/06/25 02:00:06;;;;;;;10.40;8.57;;;16.70;99.90;;;;;;5012682;28;20030;-46
2022/06/25 02:02:32;;;;;;;21.38;9.70;;;16.70;99.90;;;;;;5012506;28;20025;-45
2022/06/25 02:04:57;;;;;;;16.67;9.07;;;16.70;99.90;;;;;;5012282;28;20501;-47
2022/06/25 02:07:23;;;;;;;14.70;9.70;;;16.70;99.90;;;;;;5012053;28;20076;-47
2022/06/25 02:09:48;;;;;;;15.48;9.10;;;16.70;99.90;;;;;;5012276;28;20018;-46
2022/06/25 02:12:14;;;;;;;20.13;8.82;;;16.70;99.90;;;;;;5012286;28;20049;-46
2022/06/25 02:14:40;;;;;;;18.38;8.77;;;16.70;99.90;;;;;;5012223;28;20026;-49
2022/06/25 02:17:06;;;;;;;17.17;9.15;;;16.70;99.90;;;;;;5011487;28;20406;-48
2022/06/25 02:19:31;;;;;;;15.27;8.50;;;16.70;99.90;;;;;;5012222;28;20034;-47
2022/06/25 02:21:57;;;;;;;13.70;8.25;;;16.70;99.90;;;;;;5012172;28;20026;-46
2022/06/25 02:24:22;;;;;;;14.60;7.85;;;16.80;99.90;;;;;;5010719;28;20026;-47
2022/06/25 02:26:48;;;;;;;17.95;9.05;;;16.70;99.90;;;;;;5011592;28;20022;-46
2022/06/25 02:29:13;;;;;;;13.50;8.25;;;16.80;99.90;;;;;;5011845;28;20057;-47
2022/06/25 02:31:38;;;;;;;10.05;8.02;;;16.80;99.90;;;;;;5011861;28;20561;-49
2022/06/25 02:34:04;;;;;;;21.15;9.73;;;16.80;99.90;;;;;;5012050;28;20030;-46
2022/06/25 02:36:29;;;;;;;18.95;9.32;;;16.80;99.90;;;;;;5011923;28;20437;-47
2022/06/25 02:38:55;;;;;;;18.70;8.70;;;16.70;99.90;;;;;;5011644;28;20509;-47
2022/06/25 02:41:20;;;;;;;14.73;9.40;;;16.80;99.90;;;;;;5011879;28;20022;-47
2022/06/25 02:43:46;;;;;;;10.43;8.40;;;16.80;99.90;;;;;;5011966;28;20108;-46
2022/06/25 02:46:11;;;;;;;11.93;9.55;;;16.70;99.90;;;;;;5011306;28;20034;-47
2022/06/25 02:48:37;;;;;;;19.27;9.40;;;16.70;99.90;;;;;;5011664;28;20037;-47
2022/06/25 02:51:02;;;;;;;18.23;8.70;;;16.70;99.90;;;;;;5011709;28;20025;-45
2022/06/25 02:53:28;;;;;;;24.83;9.10;;;16.70;99.90;;;;;;5011770;28;20033;-45
2022/06/25 02:58:55;;;;;;;13.77;9.27;;;16.60;99.90;;;;;;5011720;28;20036;-51
2022/06/25 03:01:26;;;;;;;9.65;8.45;;;16.60;99.90;;;;;;5011698;28;20030;-46
2022/06/25 03:03:52;;;;;;;11.77;8.88;;;16.60;99.90;;;;;;5011692;28;20030;-48
2022/06/25 03:06:18;;;;;;;22.05;8.63;;;16.60;99.90;;;;;;5011361;28;20375;-48
2022/06/25 03:08:44;;;;;;;15.23;8.93;;;16.60;99.90;;;;;;5011364;28;20030;-45
2022/06/25 03:11:10;;;;;;;14.77;8.75;;;16.60;99.90;;;;;;5011531;28;20113;-46
2022/06/25 03:13:36;;;;;;;13.82;8.75;;;16.60;99.90;;;;;;5011656;28;20125;-47
2022/06/25 03:16:04;;;;;;;14.57;9.57;;;16.50;99.90;;;;;;5011368;28;20204;-48
2022/06/25 03:18:29;;;;;;;14.75;8.40;;;16.60;99.90;;;;;;5011099;28;20026;-48
2022/06/25 03:20:55;;;;;;;20.48;9.27;;;16.50;99.90;;;;;;5010346;28;20411;-46
2022/06/25 03:23:20;;;;;;;15.25;8.20;;;16.50;99.90;;;;;;5011361;28;20022;-49
2022/06/25 03:25:46;;;;;;;15.50;8.38;;;16.50;99.90;;;;;;5011368;28;20038;-50
2022/06/25 03:28:13;;;;;;;15.32;9.93;;;16.50;99.90;;;;;;5011320;28;20022;-46
2022/06/25 03:30:38;;;;;;;20.58;9.60;;;16.60;99.90;;;;;;5011399;28;20042;-49
2022/06/25 03:33:04;;;;;;;12.50;9.00;;;16.50;99.90;;;;;;5011398;28;20498;-48
2022/06/25 03:35:30;;;;;;;15.55;8.23;;;16.50;99.90;;;;;;5011337;28;20030;-48
2022/06/25 03:37:56;;;;;;;13.80;8.07;;;16.50;99.90;;;;;;5011026;28;20029;-48
2022/06/25 03:40:21;;;;;;;15.55;8.43;;;16.50;99.90;;;;;;5013624;28;20034;-49
2022/06/25 03:42:48;;;;;;;15.70;8.20;;;16.50;99.90;;;;;;5015169;28;20026;-48
2022/06/25 03:45:13;;;;;;;18.60;8.23;;;16.60;99.90;;;;;;5014744;28;20029;-49
2022/06/25 03:47:39;;;;;;;17.38;8.43;;;16.60;99.90;;;;;;5015144;28;20029;-48
2022/06/25 03:50:05;;;;;;;13.43;7.43;;;16.60;99.90;;;;;;5015046;28;20026;-50
2022/06/25 03:52:31;;;;;;;18.30;7.20;;;16.60;99.90;;;;;;5014753;28;20014;-49
2022/06/25 03:54:56;;;;;;;11.43;7.50;;;16.70;99.90;;;;;;5013530;28;20048;-47
2022/06/25 03:57:22;;;;;;;13.25;7.55;;;16.80;99.90;;;;;;5014476;28;20034;-51
2022/06/25 03:59:47;;;;;;;16.13;8.10;;;16.80;99.90;;;;;;5015356;28;20087;-46
2022/06/25 04:02:13;;;;;;;14.23;7.50;;;16.80;99.90;;;;;;5014672;28;20034;-51
2022/06/25 04:04:38;;;;;;;20.08;7.57;;;16.90;99.90;;;;;;5014538;28;20076;-53
2022/06/25 04:07:04;;;;;;;11.15;7.32;;;17.00;99.90;;;;;;5013054;28;20490;-47
2022/06/25 04:09:30;;;;;;;13.38;7.32;;;17.00;99.90;;;;;;5014703;28;20034;-50
2022/06/25 04:11:56;;;;;;;20.13;8.20;;;17.00;99.90;;;;;;5009777;28;20053;-51
2022/06/25 04:14:21;;;;;;;17.77;8.32;;;17.00;99.90;;;;;;5003668;28;20019;-46
2022/06/25 04:16:47;;;;;;;12.70;8.02;;;17.00;99.90;;;;;;5009016;28;20173;-48
2022/06/25 04:19:12;;;;;;;20.08;7.88;;;17.10;99.90;;;;;;4994514;28;20471;-47
2022/06/25 04:21:38;;;;;;;15.45;8.02;;;17.00;99.90;;;;;;4998764;28;20149;-47
2022/06/25 04:24:04;;;;;;;17.42;8.00;;;17.20;99.90;;;;;;4994703;28;20030;-47
2022/06/25 04:26:29;;;;;;;12.25;7.45;;;17.20;99.90;;;;;;4998069;28;20065;-49
2022/06/25 04:29:04;;;;;;;16.15;8.20;;;17.20;99.90;;;;;;5011330;28;20033;-48
2022/06/25 04:31:31;;;;;;;11.95;8.27;;;17.20;99.90;;;;;;4994719;28;20073;-46
2022/06/25 04:33:57;;;;;;;13.55;7.53;;;17.30;99.90;;;;;;5004335;28;20033;-46
2022/06/25 04:36:22;;;;;;;13.88;7.53;;;17.30;99.90;;;;;;5013906;28;20033;-47
2022/06/25 04:38:49;;;;;;;22.15;7.47;;;17.30;99.90;;;;;;5013839;28;20030;-48
2022/06/25 04:41:14;;;;;;;16.65;7.18;;;17.40;99.90;;;;;;5014034;28;20034;-47
2022/06/25 04:43:40;;;;;;;15.55;7.35;;;17.50;99.90;;;;;;5013825;28;20026;-46
2022/06/25 04:46:05;;;;;;;13.48;7.13;;;17.60;99.90;;;;;;5004120;28;20043;-48
2022/06/25 04:48:31;;;;;;;19.95;6.90;;;17.70;99.90;;;;;;5009444;28;20034;-47
2022/06/25 04:50:57;;;;;;;11.13;6.78;;;17.80;99.90;;;;;;4993900;28;20482;-46
2022/06/25 04:53:22;;;;;;;14.57;6.47;;;18.00;99.90;;;;;;5002958;28;20031;-47
2022/06/25 04:55:48;;;;;;;12.07;5.45;;;18.10;99.90;;;;;;5013810;28;20026;-48
2022/06/25 04:58:13;;;;;;;11.65;5.60;;;18.40;99.90;;;;;;5012946;28;20422;-46
2022/06/25 05:00:40;;;;;;;6.35;4.80;;;18.80;99.90;;;;;;5013649;28;20033;-48
2022/06/25 05:03:06;;;;;;;6.65;5.18;;;19.50;99.90;;;;;;5013668;28;20124;-47
2022/06/25 05:05:32;;;;;;;9.82;4.93;;;20.30;99.90;;;;;;5004721;28;20393;-50
2022/06/25 05:07:57;;;;;;;9.20;4.97;;;21.10;99.90;;;;;;4976183;28;20029;-46
2022/06/25 05:10:23;;;;;;;16.02;4.97;;;22.00;99.90;;;;;;4993961;28;20042;-49
2022/06/25 05:15:33;;;;;;;12.70;5.03;;;23.40;99.90;;;;;;4993657;28;20088;-48
2022/06/25 05:17:59;;;;;;;15.30;4.82;;;24.00;99.90;;;;;;4993476;28;20073;-47
2022/06/25 05:20:24;;;;;;;7.85;3.83;;;24.40;99.90;;;;;;4993773;28;20030;-49
2022/06/25 05:22:50;;;;;;;10.50;4.10;;;24.80;99.90;;;;;;4993722;28;20161;-51
2022/06/25 05:25:16;;;;;;;11.13;3.60;;;25.00;99.90;;;;;;4993548;28;20513;-48
2022/06/25 05:27:41;;;;;;;8.90;3.75;;;25.20;99.90;;;;;;4993152;28;20498;-47
2022/06/25 05:30:07;;;;;;;11.52;2.90;;;25.20;99.90;;;;;;4993461;28;20160;-47
2022/06/25 05:32:33;;;;;;;10.80;2.90;;;25.30;99.90;;;;;;4993357;28;20029;-48
2022/06/25 05:34:59;;;;;;;13.18;2.90;;;25.70;99.90;;;;;;4993469;28;20053;-48
2022/06/25 05:37:24;;;;;;;7.00;2.42;;;25.90;99.90;;;;;;4992966;28;20026;-47
2022/06/25 05:39:51;;;;;;;7.15;2.30;;;26.10;99.90;;;;;;4993314;28;20491;-47
2022/06/25 05:42:17;;;;;;;9.77;2.67;;;26.60;99.80;;;;;;5003699;28;20046;-49
2022/06/25 05:44:43;;;;;;;2.17;2.03;;;26.90;99.30;;;;;;5012384;28;20069;-48
2022/06/25 05:47:09;;;;;;;8.98;2.70;;;27.10;98.90;;;;;;5012539;28;20050;-49
2022/06/25 05:49:34;;;;;;;9.40;2.53;;;27.20;98.60;;;;;;5011697;28;20080;-47
2022/06/25 05:52:00;;;;;;;10.98;2.30;;;27.60;98.30;;;;;;4996016;28;20474;-48
2022/06/25 05:54:26;;;;;;;6.30;2.40;;;27.90;97.40;;;;;;4996487;28;20022;-49
2022/06/25 05:56:52;;;;;;;6.88;2.10;;;28.40;96.60;;;;;;5012932;28;20053;-52
2022/06/25 05:59:17;;;;;;;8.70;2.22;;;28.90;95.60;;;;;;5012315;28;20060;-50
2022/06/25 06:01:43;;;;;;;5.50;1.60;;;29.30;95.60;;;;;;5012083;28;20049;-48
2022/06/25 06:04:08;;;;;;;3.50;1.92;;;29.60;94.50;;;;;;5010674;28;20029;-48
2022/06/25 06:06:34;;;;;;;8.32;1.90;;;29.60;94.20;;;;;;5010264;28;20033;-49
2022/06/25 06:08:59;;;;;;;3.38;1.52;;;29.60;93.10;;;;;;5012304;28;20029;-49
2022/06/25 06:11:25;;;;;;;3.63;1.70;;;29.70;92.80;;;;;;5011298;28;20111;-49
2022/06/25 06:13:50;;;;;;;3.45;1.67;;;29.50;93.00;;;;;;5012111;28;20430;-49
2022/06/25 06:16:15;;;;;;;5.95;2.30;;;29.60;92.70;;;;;;5012004;28;20088;-49
2022/06/25 06:18:41;;;;;;;3.88;1.73;;;29.70;92.80;;;;;;5008004;28;20578;-48
2022/06/25 06:21:06;;;;;;;8.02;2.35;;;29.60;93.30;;;;;;4993260;28;20030;-51
2022/06/25 06:23:32;;;;;;;2.08;1.90;;;29.90;92.20;;;;;;5005717;28;20030;-49
2022/06/25 06:25:57;;;;;;;8.48;3.35;;;29.30;92.90;;;;;;4993695;28;20034;-49
2022/06/25 06:28:23;;;;;;;8.05;2.80;;;28.20;94.00;;;;;;5011772;28;20478;-49
2022/06/25 06:30:48;;;;;;;6.20;2.13;;;27.30;95.80;;;;;;5011935;28;20037;-48
2022/06/25 06:33:14;;;;;;;4.53;2.00;;;26.30;97.40;;;;;;5012048;28;20034;-47
2022/06/25 06:35:39;;;;;;;4.70;2.40;;;25.70;98.40;;;;;;5011755;28;20062;-49
2022/06/25 06:38:05;;;;;;;3.97;2.00;;;24.80;99.20;;;;;;5011688;28;20040;-48
2022/06/25 06:40:30;;;;;;;5.30;2.63;;;24.00;99.90;;;;;;4994122;28;20513;-48
2022/06/25 06:42:56;;;;;;;4.00;2.25;;;23.40;99.90;;;;;;5011944;28;20084;-48
2022/06/25 06:45:22;;;;;;;4.13;2.42;;;22.80;99.90;;;;;;5038805;22;20037;-51
2022/06/25 06:47:47;;;;;;;6.07;2.50;;;22.30;99.90;;;;;;5030959;28;20098;-54
2022/06/25 06:50:13;;;;;;;9.95;3.10;;;22.00;99.90;;;;;;5013885;28;20172;-52
2022/06/25 06:52:38;;;;;;;6.68;3.53;;;21.80;99.90;;;;;;5031605;28;20030;-51
2022/06/25 06:55:05;;;;;;;5.32;3.45;;;21.70;99.90;;;;;;5031335;28;20036;-51
2022/06/25 06:57:32;;;;;;;6.18;3.83;;;21.90;99.90;;;;;;5031021;28;20021;-51
2022/06/25 06:59:58;;;;;;;6.78;3.15;;;22.40;99.90;;;;;;5031567;28;20116;-50
2022/06/25 07:02:27;;;;;;;6.93;3.42;;;22.40;99.90;;;;;;5031594;28;20028;-48
2022/06/25 07:04:53;;;;;;;10.05;3.58;;;22.20;99.90;;;;;;5031567;28;20413;-50
2022/06/25 07:07:19;;;;;;;4.85;3.08;;;22.00;99.90;;;;;;5031804;28;20018;-50
2022/06/25 07:09:44;;;;;;;4.45;4.03;;;21.70;99.90;;;;;;5013859;28;20033;-50
2022/06/25 07:12:10;;;;;;;6.03;3.58;;;21.40;99.90;;;;;;5031487;28;20444;-51
2022/06/25 07:14:35;;;;;;;10.60;9.50;;;21.30;99.90;;;;;;5016245;28;20551;-47
2022/06/25 07:17:01;;;;;;;17.73;12.48;;;21.10;99.90;;;;;;5034932;28;20029;-51
2022/06/25 07:19:27;;;;;;;9.02;6.43;;;21.00;99.90;;;;;;5035310;28;20029;-51
2022/06/25 07:21:54;;;;;;;7.57;4.30;;;21.00;99.90;;;;;;5035393;28;20026;-51
2022/06/25 07:24:20;;;;;;;9.77;4.30;;;20.90;99.90;;;;;;5017533;28;20139;-50
2022/06/25 07:26:46;;;;;;;5.60;4.00;;;20.80;99.90;;;;;;5034784;28;20240;-50
2022/06/25 07:29:12;;;;;;;5.38;4.65;;;20.80;99.90;;;;;;5035166;28;20044;-51
2022/06/25 07:31:37;;;;;;;5.30;4.32;;;20.80;99.90;;;;;;5035021;28;20029;-51
2022/06/25 07:34:03;;;;;;;5.63;4.22;;;20.80;99.90;;;;;;5035194;28;20053;-54
2022/06/25 07:36:28;;;;;;;8.20;4.47;;;21.00;99.90;;;;;;5034784;28;20033;-51
2022/06/25 07:38:54;;;;;;;4.47;4.07;;;21.10;99.90;;;;;;5034838;28;20018;-52
2022/06/25 07:41:20;;;;;;;4.18;3.88;;;21.30;99.90;;;;;;5035820;28;20038;-50
2022/06/25 07:43:45;;;;;;;4.28;3.92;;;21.50;99.90;;;;;;5034576;28;20489;-53
2022/06/25 07:46:11;;;;;;;5.22;4.00;;;21.60;99.90;;;;;;5034443;28;20026;-52
2022/06/25 07:48:37;;;;;;;5.82;3.53;;;21.80;99.90;;;;;;5034668;28;20109;-52
2022/06/25 07:53:46;;;;;;;5.85;3.55;;;22.30;99.90;;;;;;5034893;28;20611;-52
2022/06/25 07:56:12;;;;;;;5.55;3.75;;;22.70;99.90;;;;;;5034542;28;20116;-55
2022/06/25 07:58:38;;;;;;;5.47;3.45;;;22.90;99.90;;;;;;5034646;28;20393;-55
2022/06/25 08:01:04;;;;;;;4.95;3.50;;;23.00;99.90;;;;;;5034517;28;20030;-51
2022/06/25 08:03:30;;;;;;;4.53;3.10;;;23.10;99.90;;;;;;5034052;28;20029;-53
2022/06/25 08:05:57;;;;;;;3.85;3.55;;;23.20;99.90;;;;;;5034341;28;20036;-53
2022/06/25 08:08:23;;;;;;;7.15;3.13;;;24.40;99.90;;;;;;5033729;28;20025;-52
2022/06/25 08:10:48;;;;;;;9.00;3.50;;;26.10;99.90;;;;;;5033110;28;20091;-53
2022/06/25 08:13:14;;;;;;;3.50;1.92;;;26.70;98.30;;;;;;5029645;28;20018;-55
2022/06/25 08:15:39;;;;;;;3.50;2.13;;;27.70;97.90;;;;;;5033366;28;20064;-56
2022/06/25 08:18:05;;;;;;;5.68;2.10;;;28.50;95.00;;;;;;5034133;28;20033;-50
2022/06/25 08:20:30;;;;;;;3.25;2.45;;;28.20;94.30;;;;;;5034578;28;20397;-52
2022/06/25 08:22:56;;;;;;;2.65;2.05;;;27.60;95.50;;;;;;5034560;28;20401;-54
2022/06/25 08:25:21;;;;;;;2.05;1.85;;;26.90;96.00;;;;;;5033037;28;20504;-51
2022/06/25 08:27:52;;;;;;;9.57;3.20;;;26.70;96.60;;;;;;5033462;28;20026;-52
2022/06/25 08:30:19;;;;;;;6.93;1.85;;;27.20;96.60;;;;;;5033513;28;20075;-50
2022/06/25 08:32:45;;;;;;;2.90;1.80;;;27.50;96.00;;;;;;5039207;28;20037;-51
2022/06/25 08:35:11;;;;;;;3.45;2.25;;;27.30;95.60;;;;;;5047011;28;20037;-52
2022/06/25 08:37:55;;;;;;;2.33;1.85;;;27.20;95.20;;;;;;5047854;28;20036;-54
2022/06/25 08:40:21;;;;;;;3.10;1.92;;;27.30;96.20;;;;;;5036932;28;20512;-53
2022/06/25 08:42:48;;;;;;;4.00;2.22;;;27.40;96.40;;;;;;5033700;28;20435;-54
2022/06/25 08:45:15;;;;;;;2.75;2.00;;;27.60;95.50;;;;;;5033064;28;20124;-53
2022/06/25 08:47:46;;;;;;;4.72;2.70;;;27.80;94.50;;;;;;5032938;28;20554;-52
2022/06/25 08:50:14;;;;;;;3.30;2.03;;;27.80;94.30;;;;;;5033722;28;20525;-52
2022/06/25 08:52:46;;;;;;;1.60;1.50;;;27.60;95.50;;;;;;5033052;28;20029;-54
2022/06/25 08:55:36;;;;;;;3.95;2.00;;;27.60;95.20;;;;;;5033499;28;20029;-53
2022/06/25 08:58:03;;;;;;;2.30;2.03;;;27.10;95.00;;;;;;5033793;28;20286;-50
2022/06/25 09:00:33;;;;;;;28.35;23.75;;;27.20;95.60;;;;;;5033529;28;20033;-50
2022/06/25 09:02:59;;;;;;;6.57;5.90;;;27.40;96.50;;;;;;5023317;28;20029;-53
2022/06/25 09:05:32;;;;;;;2.72;2.03;;;27.50;95.60;;;;;;5033639;28;20495;-53
2022/06/25 09:08:02;;;;;;;3.72;2.25;;;27.50;94.80;;;;;;5032930;28;20030;-53
2022/06/25 09:10:29;;;;;;;5.05;2.00;;;27.30;94.80;;;;;;5034160;28;20400;-52
2022/06/25 09:12:58;;;;;;;6.28;1.90;;;27.50;94.60;;;;;;5033369;28;20022;-51
2022/06/25 09:15:27;;;;;;;2.58;1.10;;;27.80;94.30;;;;;;5031966;28;20025;-49
2022/06/25 09:17:53;;;;;;;3.45;1.75;;;28.00;93.60;;;;;;5031062;28;20037;-55
2022/06/25 09:20:20;;;;;;;2.92;1.38;;;28.20;93.40;;;;;;5032933;28;20032;-54
2022/06/25 09:22:59;;;;;;;2.15;1.60;;;28.20;92.50;;;;;;5032377;28;20108;-51
2022/06/25 09:25:27;;;;;;;5.43;1.83;;;28.10;93.10;;;;;;5033125;28;20021;-50
2022/06/25 09:27:53;;;;;;;7.65;2.08;;;28.10;93.20;;;;;;5032709;28;20026;-54
2022/06/25 09:30:20;;;;;;;8.60;1.67;;;28.00;92.90;;;;;;5032476;28;20520;-51
2022/06/25 09:32:59;;;;;;;3.95;1.70;;;28.00;92.80;;;;;;5032616;28;20059;-53
2022/06/25 09:35:39;;;;;;;1.65;1.55;;;28.10;93.00;;;;;;5032581;28;20116;-52
2022/06/25 09:38:16;;;;;;;1.70;1.60;;;28.20;92.80;;;;;;5031658;28;20087;-50
2022/06/25 09:40:58;;;;;;;3.55;2.15;;;28.00;92.30;;;;;;5032491;28;20025;-50
2022/06/25 09:43:26;;;;;;;4.30;1.90;;;27.80;93.30;;;;;;5032806;28;20068;-51
2022/06/25 09:45:53;;;;;;;2.25;1.50;;;27.50;93.30;;;;;;5032356;28;20029;-52
2022/06/25 09:48:22;;;;;;;3.17;1.70;;;27.20;93.10;;;;;;5032643;28;20029;-52
2022/06/25 09:51:12;;;;;;;12.93;1.88;;;27.10;93.70;;;;;;5032781;28;20041;-54
2022/06/25 09:53:58;;;;;;;1.80;1.42;;;27.00;93.80;;;;;;5032648;28;20024;-53
2022/06/25 09:56:27;;;;;;;1.90;1.70;;;26.90;93.90;;;;;;5032754;28;20026;-56
2022/06/25 09:58:54;;;;;;;5.28;1.70;;;26.70;93.90;;;;;;5032820;28;20481;-56
2022/06/25 10:01:22;;;;;;;4.32;1.70;;;26.70;93.60;;;;;;5033006;28;20033;-50
2022/06/25 10:03:49;;;;;;;3.90;1.83;;;26.40;94.10;;;;;;5032413;28;20021;-54
2022/06/25 10:06:23;;;;;;;5.05;1.80;;;26.00;94.30;;;;;;5032610;28;20030;-54
2022/06/25 10:08:59;;;;;;;6.60;1.90;;;25.70;95.10;;;;;;5032171;28;20040;-53
2022/06/25 10:11:27;;;;;;;2.83;2.00;;;25.50;95.10;;;;;;5032709;28;20116;-52
2022/06/25 10:13:53;;;;;;;5.22;1.88;;;25.60;95.70;;;;;;5032207;28;20025;-54
2022/06/25 10:16:23;;;;;;;8.68;2.20;;;25.50;95.90;;;;;;5032058;28;20052;-51
2022/06/25 10:18:49;;;;;;;4.57;2.03;;;25.40;96.30;;;;;;5031748;28;20096;-53
2022/06/25 10:21:16;;;;;;;5.45;1.73;;;25.20;96.70;;;;;;5032272;28;20175;-54
2022/06/25 10:23:43;;;;;;;3.08;1.60;;;25.10;96.50;;;;;;5032005;28;20029;-53
2022/06/25 10:26:10;;;;;;;9.15;6.10;;;25.20;96.60;;;;;;5031926;28;20504;-53
2022/06/25 10:28:36;;;;;;;5.55;3.15;;;25.20;96.00;;;;;;5031701;28;20065;-52
2022/06/25 10:31:07;;;;;;;64.57;51.67;;;25.20;96.00;;;;;;5031636;28;20200;-56
2022/06/25 10:33:55;;;;;;;2.92;1.90;;;25.30;95.90;;;;;;5031759;28;20021;-51
2022/06/25 10:36:58;;;;;;;6.47;1.77;;;25.20;95.50;;;;;;5032062;28;20032;-54
2022/06/25 10:39:27;;;;;;;3.75;1.80;;;25.20;95.90;;;;;;4932414;29;20044;-54
2022/06/25 10:45:00;;;;;;;1.50;1.40;;;25.30;95.50;;;;;;5003932;28;20048;-56
2022/06/25 10:47:39;;;;;;;2.20;1.30;;;25.30;96.10;;;;;;5031783;28;20428;-54
2022/06/25 10:50:22;;;;;;;3.65;2.40;;;25.30;95.80;;;;;;5030670;28;20095;-52
2022/06/25 10:53:03;;;;;;;3.97;1.58;;;25.20;95.80;;;;;;5031751;28;20052;-52
2022/06/25 10:55:59;;;;;;;1.95;1.63;;;25.10;96.10;;;;;;5030557;28;20033;-53
2022/06/25 10:58:26;;;;;;;5.05;1.63;;;25.00;98.00;;;;;;5020644;28;20120;-55
2022/06/25 11:01:00;;;;;;;2.50;1.20;;;25.00;97.60;;;;;;5030750;28;20049;-54
2022/06/25 11:03:30;;;;;;;2.67;1.40;;;25.10;97.80;;;;;;5031586;28;20025;-53
2022/06/25 11:05:57;;;;;;;4.10;1.52;;;25.10;96.40;;;;;;5030946;28;20026;-55
2022/06/25 11:08:35;;;;;;;2.05;1.30;;;25.00;96.30;;;;;;5030727;28;20034;-55
2022/06/25 11:11:00;;;;;;;1.35;1.20;;;25.20;96.40;;;;;;5030017;28;20026;-55
2022/06/25 11:13:27;;;;;;;5.93;1.67;;;25.30;95.90;;;;;;5030980;28;20512;-52
2022/06/25 11:15:53;;;;;;;2.53;1.40;;;25.40;96.20;;;;;;5031314;28;20424;-57
2022/06/25 11:18:19;;;;;;;4.32;1.92;;;25.60;96.30;;;;;;5013593;28;20025;-50
2022/06/25 11:20:46;;;;;;;3.38;1.33;;;25.70;96.60;;;;;;5031360;28;20374;-56
2022/06/25 11:23:16;;;;;;;4.95;1.67;;;25.90;95.30;;;;;;5031863;28;20505;-50
2022/06/25 11:28:48;;;;;;;3.10;1.40;;;25.90;94.80;;;;;;5030958;28;20052;-53
2022/06/25 11:31:19;;;;;;;8.68;1.40;;;25.90;94.70;;;;;;5031209;28;20430;-54
2022/06/25 11:33:46;;;;;;;4.05;3.42;;;25.90;94.80;;;;;;5031287;28;20022;-51
2022/06/25 11:36:12;;;;;;;14.07;9.70;;;25.90;94.50;;;;;;5030097;28;20033;-50
2022/06/25 11:38:48;;;;;;;1.60;1.50;;;25.90;93.40;;;;;;5030786;28;20025;-49
2022/06/25 11:41:21;;;;;;;1.70;1.20;;;25.70;94.10;;;;;;5031081;28;20026;-50
2022/06/25 11:43:47;;;;;;;3.35;1.48;;;25.70;94.80;;;;;;5031099;28;20029;-49
2022/06/25 11:46:18;;;;;;;3.75;1.50;;;25.60;93.90;;;;;;5030916;28;20501;-48
2022/06/25 11:48:47;;;;;;;1.92;1.25;;;25.50;94.10;;;;;;5030818;28;20504;-48
2022/06/25 11:51:16;;;;;;;3.85;1.40;;;25.40;94.20;;;;;;5031280;28;20017;-52
2022/06/25 11:53:42;;;;;;;1.30;1.13;;;25.40;94.60;;;;;;5030973;28;20497;-51
2022/06/25 11:56:07;;;;;;;2.15;1.17;;;25.40;95.10;;;;;;5030385;28;20043;-49
2022/06/25 11:58:35;;;;;;;4.40;1.30;;;25.70;94.70;;;;;;5030745;28;20101;-51
2022/06/25 12:01:04;;;;;;;1.13;0.90;;;25.70;93.80;;;;;;5031575;28;20053;-52
2022/06/25 12:03:30;;;;;;;1.00;1.00;;;25.60;93.70;;;;;;5034242;28;20036;-49
2022/06/25 12:05:58;;;;;;;2.65;1.30;;;25.70;94.80;;;;;;5034545;28;20389;-52
2022/06/25 12:08:25;;;;;;;1.25;1.15;;;25.80;94.10;;;;;;5034025;28;20025;-50
2022/06/25 12:10:52;;;;;;;2.60;1.40;;;25.80;94.10;;;;;;5034577;28;20049;-51
2022/06/25 12:13:18;;;;;;;1.63;1.45;;;25.80;95.20;;;;;;5034479;28;20108;-51
2022/06/25 12:15:45;;;;;;;1.13;1.13;;;25.80;94.60;;;;;;5034695;28;20109;-48
2022/06/25 12:18:10;;;;;;;1.40;1.30;;;25.80;94.00;;;;;;5033709;28;20030;-50
2022/06/25 12:20:54;;;;;;;4.10;1.70;;;25.70;94.20;;;;;;5034312;28;20033;-48
2022/06/25 12:23:20;;;;;;;5.90;1.63;;;25.80;94.30;;;;;;5033216;28;20067;-49
2022/06/25 12:25:47;;;;;;;5.20;1.58;;;25.80;94.40;;;;;;5034042;28;20038;-50
2022/06/25 12:28:13;;;;;;;4.53;1.98;;;25.90;94.50;;;;;;5033380;28;20092;-49
2022/06/25 12:30:38;;;;;;;5.78;1.75;;;25.90;93.60;;;;;;5034248;28;20136;-54
2022/06/25 12:33:14;;;;;;;3.80;1.30;;;25.90;93.80;;;;;;5032911;28;20489;-52
2022/06/25 12:35:41;;;;;;;2.25;1.85;;;25.90;93.90;;;;;;5033893;28;20025;-48
2022/06/25 12:38:11;;;;;;;4.55;1.73;;;25.90;93.50;;;;;;5033211;28;20465;-53
2022/06/25 12:40:46;;;;;;;1.67;1.27;;;25.90;94.00;;;;;;5034044;28;20496;-53
2022/06/25 12:43:14;;;;;;;3.03;1.60;;;25.90;94.00;;;;;;5034281;28;20540;-48
2022/06/25 12:45:45;;;;;;;1.65;1.15;;;25.90;93.30;;;;;;5046117;22;20044;-47
2022/06/25 12:48:12;;;;;;;3.33;1.27;;;25.90;93.60;;;;;;5013402;28;20087;-50
2022/06/25 12:50:45;;;;;;;3.25;1.10;;;25.80;93.70;;;;;;5013960;28;20014;-49
2022/06/25 12:53:15;;;;;;;2.55;1.17;;;25.90;93.80;;;;;;5014036;28;20030;-48
2022/06/25 12:55:44;;;;;;;2.08;1.88;;;25.90;93.10;;;;;;5017371;28;20034;-46
2022/06/25 12:58:14;;;;;;;1.33;1.20;;;26.00;93.80;;;;;;5032868;28;20116;-51
2022/06/25 13:00:43;;;;;;;4.57;1.33;;;26.10;92.80;;;;;;5033669;28;20371;-50
2022/06/25 13:03:09;;;;;;;1.85;1.42;;;26.10;92.40;;;;;;5033722;28;20022;-49